Su-ao, Taiwan
Current Conditions -  °F | °C
As of 5:00 PM on Friday 31 Oct 2014 (Local Time) from RCSS Reporting Station
Scattered Clouds Scattered Clouds  
Wind Chill: 81°   Ceiling: Unl
Heat Index: 82°   Visibility: 6mi
Dew Point: 64°   Wind: 9mph
Humidity: 58%   Direction: 90°E
Pressure: 29.88"   Gusts: NA
Location:  24.6°N, 121.83°E
Report Text: RCSS 310900Z 09008KT 9999 FEW025 SCT045 27/18 Q1012 NOSIGRMK A2990
Loading
Personal Weather Stations






























Interactive Weather Map
Tropical Storm Tracking
New forecast layout! Learn more

10-Day Weather Forecast

Advertisements
Track Severe Weather on mobile